sensor_id;sensor_type;location;lat;lon;timestamp;pressure;altitude;pressure_sealevel;temperature;humidity
9969;BME280;5025;48.890;9.278;2022-07-04T06:50:23;99078.88;;;22.23;51.28
9969;BME280;5025;48.890;9.278;2022-07-04T06:52:49;99086.78;;;22.11;51.07
9969;BME280;5025;48.890;9.278;2022-07-04T06:55:14;99084.06;;;22.06;51.24
9969;BME280;5025;48.890;9.278;2022-07-04T06:57:40;99080.81;;;22.03;51.18
9969;BME280;5025;48.890;9.278;2022-07-04T07:00:07;99072.94;;;21.97;51.49
9969;BME280;5025;48.890;9.278;2022-07-04T07:02:36;99079.03;;;21.94;51.51
9969;BME280;5025;48.890;9.278;2022-07-04T07:05:03;99081.03;;;21.88;51.78
9969;BME280;5025;48.890;9.278;2022-07-04T07:07:29;99085.25;;;21.61;52.13
9969;BME280;5025;48.890;9.278;2022-07-04T07:09:55;99078.09;;;21.60;51.96
9969;BME280;5025;48.890;9.278;2022-07-04T07:12:21;99072.00;;;21.63;52.25
9969;BME280;5025;48.890;9.278;2022-07-04T07:14:48;99069.19;;;21.69;52.06
9969;BME280;5025;48.890;9.278;2022-07-04T07:17:14;99074.34;;;21.75;51.92
9969;BME280;5025;48.890;9.278;2022-07-04T07:19:41;99065.81;;;21.77;52.03
9969;BME280;5025;48.890;9.278;2022-07-04T07:22:08;99070.84;;;21.70;52.18
9969;BME280;5025;48.890;9.278;2022-07-04T07:24:33;99068.84;;;21.75;52.30
9969;BME280;5025;48.890;9.278;2022-07-04T07:26:58;99065.44;;;21.83;52.20
9969;BME280;5025;48.890;9.278;2022-07-04T07:29:24;99062.00;;;21.92;52.46
9969;BME280;5025;48.890;9.278;2022-07-04T07:31:49;99055.22;;;21.84;52.31
9969;BME280;5025;48.890;9.278;2022-07-04T07:34:15;99055.47;;;21.88;52.33
9969;BME280;5025;48.890;9.278;2022-07-04T07:36:40;99049.31;;;21.96;52.12
9969;BME280;5025;48.890;9.278;2022-07-04T07:39:06;99046.75;;;21.99;52.25
9969;BME280;5025;48.890;9.278;2022-07-04T07:41:31;99047.81;;;22.03;52.08
9969;BME280;5025;48.890;9.278;2022-07-04T07:43:56;99048.94;;;21.83;52.50
9969;BME280;5025;48.890;9.278;2022-07-04T07:46:22;99052.34;;;21.75;52.59
9969;BME280;5025;48.890;9.278;2022-07-04T07:48:47;99056.66;;;21.81;52.84
9969;BME280;5025;48.890;9.278;2022-07-04T07:51:13;99052.66;;;21.93;52.65
9969;BME280;5025;48.890;9.278;2022-07-04T07:53:40;99052.25;;;21.99;52.27
9969;BME280;5025;48.890;9.278;2022-07-04T07:56:06;99036.22;;;22.07;52.33
9969;BME280;5025;48.890;9.278;2022-07-04T07:58:31;99042.16;;;22.14;52.39
9969;BME280;5025;48.890;9.278;2022-07-04T08:00:56;99041.56;;;22.17;52.31
9969;BME280;5025;48.890;9.278;2022-07-04T08:03:23;99040.97;;;22.20;52.55
9969;BME280;5025;48.890;9.278;2022-07-04T08:06:07;99038.94;;;22.26;52.32
9969;BME280;5025;48.890;9.278;2022-07-04T08:08:32;99035.00;;;22.32;52.45
9969;BME280;5025;48.890;9.278;2022-07-04T08:10:58;99039.53;;;22.23;52.59
9969;BME280;5025;48.890;9.278;2022-07-04T08:13:23;99041.56;;;22.17;52.69
9969;BME280;5025;48.890;9.278;2022-07-04T08:15:49;99043.06;;;22.09;52.64
9969;BME280;5025;48.890;9.278;2022-07-04T08:18:14;99039.31;;;22.19;52.64
9969;BME280;5025;48.890;9.278;2022-07-04T08:20:41;99035.47;;;22.20;52.42
9969;BME280;5025;48.890;9.278;2022-07-04T08:23:06;99034.56;;;22.25;52.59
9969;BME280;5025;48.890;9.278;2022-07-04T08:25:31;99026.53;;;22.28;52.31
9969;BME280;5025;48.890;9.278;2022-07-04T08:27:57;99021.63;;;22.25;52.39
9969;BME280;5025;48.890;9.278;2022-07-04T08:30:22;99025.16;;;22.31;52.10
9969;BME280;5025;48.890;9.278;2022-07-04T08:32:47;99030.25;;;22.37;52.18
9969;BME280;5025;48.890;9.278;2022-07-04T08:35:13;99024.06;;;22.46;52.22
9969;BME280;5025;48.890;9.278;2022-07-04T08:37:38;99020.91;;;22.52;51.93
9969;BME280;5025;48.890;9.278;2022-07-04T08:40:06;99025.50;;;22.57;51.88
9969;BME280;5025;48.890;9.278;2022-07-04T08:42:36;99022.44;;;22.59;52.02
9969;BME280;5025;48.890;9.278;2022-07-04T08:45:03;99024.09;;;22.60;51.93
9969;BME280;5025;48.890;9.278;2022-07-04T08:47:32;99021.53;;;22.63;51.93
9969;BME280;5025;48.890;9.278;2022-07-04T08:52:41;99017.22;;;22.57;51.37
9969;BME280;5025;48.890;9.278;2022-07-04T08:55:09;99022.97;;;22.61;51.61
9969;BME280;5025;48.890;9.278;2022-07-04T08:57:53;99020.13;;;22.66;51.32
9969;BME280;5025;48.890;9.278;2022-07-04T09:00:38;99032.38;;;22.73;51.11
9969;BME280;5025;48.890;9.278;2022-07-04T09:03:04;99030.34;;;22.79;51.38
9969;BME280;5025;48.890;9.278;2022-07-04T09:05:30;99032.25;;;22.79;51.25
9969;BME280;5025;48.890;9.278;2022-07-04T09:07:57;99030.72;;;22.72;51.08
9969;BME280;5025;48.890;9.278;2022-07-04T09:10:22;99040.53;;;22.79;50.88
9969;BME280;5025;48.890;9.278;2022-07-04T09:12:48;99038.50;;;22.84;50.88
9969;BME280;5025;48.890;9.278;2022-07-04T09:15:15;99036.47;;;22.90;50.73
9969;BME280;5025;48.890;9.278;2022-07-04T09:17:40;99040.47;;;22.98;51.00
9969;BME280;5025;48.890;9.278;2022-07-04T09:22:38;99041.13;;;23.08;50.48
9969;BME280;5025;48.890;9.278;2022-07-04T09:25:04;99041.78;;;23.00;50.21
9969;BME280;5025;48.890;9.278;2022-07-04T09:27:37;99052.41;;;22.93;50.18
9969;BME280;5025;48.890;9.278;2022-07-04T09:30:05;99045.97;;;22.98;50.23
9969;BME280;5025;48.890;9.278;2022-07-04T09:32:50;99046.06;;;23.06;50.16
9969;BME280;5025;48.890;9.278;2022-07-04T09:35:22;99050.56;;;23.02;49.83
9969;BME280;5025;48.890;9.278;2022-07-04T09:37:59;99051.88;;;22.91;49.57
9969;BME280;5025;48.890;9.278;2022-07-04T09:40:33;99047.19;;;22.91;49.72
9969;BME280;5025;48.890;9.278;2022-07-04T09:43:00;99045.13;;;22.97;49.63
9969;BME280;5025;48.890;9.278;2022-07-04T09:45:26;99053.22;;;23.07;49.50
9969;BME280;5025;48.890;9.278;2022-07-04T09:47:57;99049.78;;;23.16;49.16
9969;BME280;5025;48.890;9.278;2022-07-04T09:50:24;99055.59;;;23.28;49.19
9969;BME280;5025;48.890;9.278;2022-07-04T09:52:51;99052.63;;;23.38;49.34
9969;BME280;5025;48.890;9.278;2022-07-04T09:55:31;99054.03;;;23.50;49.17
9969;BME280;5025;48.890;9.278;2022-07-04T09:57:59;99061.63;;;23.58;49.18
9969;BME280;5025;48.890;9.278;2022-07-04T10:00:27;99061.19;;;23.65;49.21
9969;BME280;5025;48.890;9.278;2022-07-04T10:02:55;99060.38;;;23.64;49.32
9969;BME280;5025;48.890;9.278;2022-07-04T10:05:23;99058.31;;;23.56;49.36
9969;BME280;5025;48.890;9.278;2022-07-04T10:07:48;99054.03;;;23.63;49.01
9969;BME280;5025;48.890;9.278;2022-07-04T10:10:29;99064.84;;;23.74;49.01
9969;BME280;5025;48.890;9.278;2022-07-04T10:12:58;99062.47;;;23.81;49.19
9969;BME280;5025;48.890;9.278;2022-07-04T10:15:23;99057.56;;;23.78;49.35
9969;BME280;5025;48.890;9.278;2022-07-04T10:17:49;99054.03;;;23.63;49.31
9969;BME280;5025;48.890;9.278;2022-07-04T10:20:15;99055.66;;;23.65;49.36
9969;BME280;5025;48.890;9.278;2022-07-04T10:22:40;99060.56;;;23.68;48.94
9969;BME280;5025;48.890;9.278;2022-07-04T10:25:07;99064.97;;;23.69;48.75
9969;BME280;5025;48.890;9.278;2022-07-04T10:27:34;99064.00;;;23.73;48.52
9969;BME280;5025;48.890;9.278;2022-07-04T10:30:00;99064.13;;;23.68;45.73
9969;BME280;5025;48.890;9.278;2022-07-04T10:32:27;99062.41;;;23.58;44.20
9969;BME280;5025;48.890;9.278;2022-07-04T10:34:54;99069.28;;;23.61;44.04
9969;BME280;5025;48.890;9.278;2022-07-04T10:37:19;99065.16;;;23.72;43.72
9969;BME280;5025;48.890;9.278;2022-07-04T10:39:45;99060.31;;;23.92;43.99
9969;BME280;5025;48.890;9.278;2022-07-04T10:42:22;99060.69;;;24.13;43.90
9969;BME280;5025;48.890;9.278;2022-07-04T10:44:49;99066.63;;;24.29;44.04
9969;BME280;5025;48.890;9.278;2022-07-04T10:47:22;99051.97;;;24.42;43.89
9969;BME280;5025;48.890;9.278;2022-07-04T10:49:49;99050.63;;;24.40;43.00
9969;BME280;5025;48.890;9.278;2022-07-04T10:52:15;99048.16;;;24.29;43.62
9969;BME280;5025;48.890;9.278;2022-07-04T10:54:42;99059.38;;;24.33;44.22
9969;BME280;5025;48.890;9.278;2022-07-04T11:18:00;99039.91;;;24.83;42.32
9969;BME280;5025;48.890;9.278;2022-07-04T11:20:28;99040.97;;;24.74;42.03
9969;BME280;5025;48.890;9.278;2022-07-04T11:25:31;99038.34;;;24.46;42.33
9969;BME280;5025;48.890;9.278;2022-07-04T11:27:57;99028.75;;;24.43;42.47
9969;BME280;5025;48.890;9.278;2022-07-04T11:30:22;99019.97;;;24.64;42.58
9969;BME280;5025;48.890;9.278;2022-07-04T11:32:47;99024.13;;;24.84;42.38
9969;BME280;5025;48.890;9.278;2022-07-04T11:35:13;99018.84;;;25.05;42.18
9969;BME280;5025;48.890;9.278;2022-07-04T11:37:38;99018.59;;;25.24;42.46
9969;BME280;5025;48.890;9.278;2022-07-04T11:40:04;99007.59;;;25.41;42.11
9969;BME280;5025;48.890;9.278;2022-07-04T11:43:05;98998.03;;;25.48;41.61
9969;BME280;5025;48.890;9.278;2022-07-04T11:45:49;99004.03;;;25.50;41.13
9969;BME280;5025;48.890;9.278;2022-07-04T11:48:24;98987.97;;;25.52;41.30
9969;BME280;5025;48.890;9.278;2022-07-04T11:50:50;98990.06;;;25.46;41.22
9969;BME280;5025;48.890;9.278;2022-07-04T11:53:19;98995.59;;;25.46;40.95
9969;BME280;5025;48.890;9.278;2022-07-04T11:55:56;98983.38;;;25.38;40.93
9969;BME280;5025;48.890;9.278;2022-07-04T11:58:22;98984.81;;;25.36;40.74
9969;BME280;5025;48.890;9.278;2022-07-04T12:00:48;98971.84;;;25.36;40.79
9969;BME280;5025;48.890;9.278;2022-07-04T12:03:13;98977.53;;;25.57;41.01
9969;BME280;5025;48.890;9.278;2022-07-04T12:05:38;98968.59;;;25.69;40.53
9969;BME280;5025;48.890;9.278;2022-07-04T12:08:04;98969.41;;;25.79;40.56
9969;BME280;5025;48.890;9.278;2022-07-04T12:10:33;98961.94;;;25.88;40.61
9969;BME280;5025;48.890;9.278;2022-07-04T12:13:00;98967.31;;;25.84;40.10
9969;BME280;5025;48.890;9.278;2022-07-04T12:15:48;98962.56;;;25.76;40.52
9969;BME280;5025;48.890;9.278;2022-07-04T12:18:22;98958.34;;;25.87;40.09
9969;BME280;5025;48.890;9.278;2022-07-04T12:20:51;98957.38;;;25.92;40.50
9969;BME280;5025;48.890;9.278;2022-07-04T12:23:18;98958.19;;;26.10;40.13
9969;BME280;5025;48.890;9.278;2022-07-04T12:25:49;98950.34;;;26.29;39.82
9969;BME280;5025;48.890;9.278;2022-07-04T12:28:16;98946.81;;;26.03;39.21
9969;BME280;5025;48.890;9.278;2022-07-04T12:30:53;98931.81;;;26.04;39.43
9969;BME280;5025;48.890;9.278;2022-07-04T12:33:22;98932.47;;;26.18;39.08
9969;BME280;5025;48.890;9.278;2022-07-04T12:35:52;98927.88;;;26.22;38.87
9969;BME280;5025;48.890;9.278;2022-07-04T12:40:54;98914.50;;;26.33;39.24
9969;BME280;5025;48.890;9.278;2022-07-04T12:43:21;98916.53;;;26.54;39.24
9969;BME280;5025;48.890;9.278;2022-07-04T12:45:48;98908.66;;;26.73;39.19
9969;BME280;5025;48.890;9.278;2022-07-04T12:48:23;98906.41;;;26.96;38.77
9969;BME280;5025;48.890;9.278;2022-07-04T12:50:49;98898.66;;;27.11;38.87
9969;BME280;5025;48.890;9.278;2022-07-04T12:53:15;98897.78;;;26.98;37.83
9969;BME280;5025;48.890;9.278;2022-07-04T12:55:42;98903.56;;;26.84;38.17
9969;BME280;5025;48.890;9.278;2022-07-04T12:58:08;98897.78;;;26.98;38.51
9969;BME280;5025;48.890;9.278;2022-07-04T13:00:33;98893.06;;;27.19;38.48
9969;BME280;5025;48.890;9.278;2022-07-04T13:02:59;98894.03;;;27.45;38.62
9969;BME280;5025;48.890;9.278;2022-07-04T13:05:24;98893.56;;;27.64;38.74
9969;BME280;5025;48.890;9.278;2022-07-04T13:07:50;98892.50;;;27.68;37.14
9969;BME280;5025;48.890;9.278;2022-07-04T13:10:15;98888.94;;;27.68;37.01
9969;BME280;5025;48.890;9.278;2022-07-04T13:12:40;98882.50;;;27.76;37.20
9969;BME280;5025;48.890;9.278;2022-07-04T13:15:06;98876.53;;;27.86;37.19
9969;BME280;5025;48.890;9.278;2022-07-04T13:17:35;98864.19;;;27.96;36.90
9969;BME280;5025;48.890;9.278;2022-07-04T13:20:00;98868.41;;;28.15;37.30
9969;BME280;5025;48.890;9.278;2022-07-04T13:22:26;98868.78;;;28.25;37.39
9969;BME280;5025;48.890;9.278;2022-07-04T13:24:52;98872.59;;;28.33;37.59
9969;BME280;5025;48.890;9.278;2022-07-04T13:27:17;98864.28;;;28.46;37.50
9969;BME280;5025;48.890;9.278;2022-07-04T13:29:43;98864.44;;;28.61;37.59
9969;BME280;5025;48.890;9.278;2022-07-04T13:32:09;98864.44;;;28.74;37.51
9969;BME280;5025;48.890;9.278;2022-07-04T13:34:35;98859.78;;;28.78;37.77
9969;BME280;5025;48.890;9.278;2022-07-04T13:37:01;98857.59;;;28.71;37.71
9969;BME280;5025;48.890;9.278;2022-07-04T13:39:26;98857.72;;;28.63;37.78
9969;BME280;5025;48.890;9.278;2022-07-04T13:41:52;98844.41;;;28.68;37.88
9969;BME280;5025;48.890;9.278;2022-07-04T13:44:17;98859.09;;;28.81;37.53
9969;BME280;5025;48.890;9.278;2022-07-04T13:46:43;98855.25;;;28.98;37.33
9969;BME280;5025;48.890;9.278;2022-07-04T13:49:08;98854.78;;;28.96;36.87
9969;BME280;5025;48.890;9.278;2022-07-04T13:51:34;98860.38;;;28.84;36.74
9969;BME280;5025;48.890;9.278;2022-07-04T13:53:59;98868.47;;;28.76;36.71
9969;BME280;5025;48.890;9.278;2022-07-04T13:56:26;98863.50;;;28.70;37.15
9969;BME280;5025;48.890;9.278;2022-07-04T13:58:51;98860.97;;;28.65;37.56
9969;BME280;5025;48.890;9.278;2022-07-04T14:01:17;98865.47;;;28.57;37.92
9969;BME280;5025;48.890;9.278;2022-07-04T14:03:45;98856.88;;;28.50;37.68
9969;BME280;5025;48.890;9.278;2022-07-04T14:06:10;98852.81;;;28.47;38.10
9969;BME280;5025;48.890;9.278;2022-07-04T14:08:36;98853.41;;;28.40;38.20
9969;BME280;5025;48.890;9.278;2022-07-04T14:11:01;98856.06;;;28.37;38.05
9969;BME280;5025;48.890;9.278;2022-07-04T14:13:27;98855.22;;;28.24;38.30
9969;BME280;5025;48.890;9.278;2022-07-04T14:15:53;98857.44;;;28.18;38.48
9969;BME280;5025;48.890;9.278;2022-07-04T14:18:18;98860.53;;;28.04;38.00
9969;BME280;5025;48.890;9.278;2022-07-04T14:20:44;98848.06;;;28.11;38.10
9969;BME280;5025;48.890;9.278;2022-07-04T14:23:11;98851.44;;;28.41;37.77
9969;BME280;5025;48.890;9.278;2022-07-04T14:25:37;98855.94;;;28.58;37.41
9969;BME280;5025;48.890;9.278;2022-07-04T14:28:02;98850.75;;;28.69;37.38
9969;BME280;5025;48.890;9.278;2022-07-04T14:30:28;98848.13;;;28.60;37.48
9969;BME280;5025;48.890;9.278;2022-07-04T14:32:53;98847.16;;;28.56;37.13
9969;BME280;5025;48.890;9.278;2022-07-04T14:35:18;98846.34;;;28.55;36.36
9969;BME280;5025;48.890;9.278;2022-07-04T14:37:44;98841.03;;;28.63;35.96
9969;BME280;5025;48.890;9.278;2022-07-04T14:40:09;98843.94;;;28.66;36.13
9969;BME280;5025;48.890;9.278;2022-07-04T14:42:35;98840.69;;;28.64;36.27
9969;BME280;5025;48.890;9.278;2022-07-04T14:45:00;98836.50;;;28.58;36.67
9969;BME280;5025;48.890;9.278;2022-07-04T14:47:25;98840.91;;;28.47;36.85
9969;BME280;5025;48.890;9.278;2022-07-04T14:49:51;98840.56;;;28.36;37.33
9969;BME280;5025;48.890;9.278;2022-07-04T14:52:16;98837.78;;;28.36;37.42
9969;BME280;5025;48.890;9.278;2022-07-04T14:54:41;98834.75;;;28.41;37.67
9969;BME280;5025;48.890;9.278;2022-07-04T14:57:07;98827.47;;;28.49;37.35
9969;BME280;5025;48.890;9.278;2022-07-04T14:59:33;98821.81;;;28.57;37.36
9969;BME280;5025;48.890;9.278;2022-07-04T15:02:03;98825.63;;;28.53;37.32
9969;BME280;5025;48.890;9.278;2022-07-04T15:04:28;98819.84;;;28.70;37.35
9969;BME280;5025;48.890;9.278;2022-07-04T15:06:53;98817.38;;;28.93;36.83
9969;BME280;5025;48.890;9.278;2022-07-04T15:09:20;98802.84;;;29.12;36.07
9969;BME280;5025;48.890;9.278;2022-07-04T15:11:46;98804.31;;;29.35;35.81
9969;BME280;5025;48.890;9.278;2022-07-04T15:14:13;98795.00;;;29.43;35.24
9969;BME280;5025;48.890;9.278;2022-07-04T15:16:38;98792.72;;;29.61;35.02
9969;BME280;5025;48.890;9.278;2022-07-04T15:19:03;98803.13;;;29.64;35.00
9969;BME280;5025;48.890;9.278;2022-07-04T15:21:29;98803.38;;;29.59;35.19
9969;BME280;5025;48.890;9.278;2022-07-04T15:24:13;98803.06;;;29.76;35.13
9969;BME280;5025;48.890;9.278;2022-07-04T15:29:08;98810.28;;;30.25;34.53
9969;BME280;5025;48.890;9.278;2022-07-04T15:31:34;98816.34;;;30.43;34.30
9969;BME280;5025;48.890;9.278;2022-07-04T15:33:59;98805.34;;;30.50;33.97
9969;BME280;5025;48.890;9.278;2022-07-04T15:36:24;98809.75;;;30.51;33.45
9969;BME280;5025;48.890;9.278;2022-07-04T15:38:49;98805.81;;;30.52;33.42
9969;BME280;5025;48.890;9.278;2022-07-04T15:41:15;98820.38;;;30.46;33.21
9969;BME280;5025;48.890;9.278;2022-07-04T15:43:41;98823.88;;;30.43;32.77
9969;BME280;5025;48.890;9.278;2022-07-04T15:46:07;98823.94;;;30.30;31.24
9969;BME280;5025;48.890;9.278;2022-07-04T15:48:33;98820.09;;;30.19;31.85
9969;BME280;5025;48.890;9.278;2022-07-04T15:50:58;98823.34;;;30.21;32.07
9969;BME280;5025;48.890;9.278;2022-07-04T15:53:23;98825.38;;;30.08;31.39
9969;BME280;5025;48.890;9.278;2022-07-04T15:55:49;98818.22;;;30.07;31.46
9969;BME280;5025;48.890;9.278;2022-07-04T15:58:14;98824.03;;;30.02;31.28
9969;BME280;5025;48.890;9.278;2022-07-04T16:00:39;98817.22;;;29.99;31.02
9969;BME280;5025;48.890;9.278;2022-07-04T16:03:05;98813.97;;;29.81;30.23
9969;BME280;5025;48.890;9.278;2022-07-04T16:05:31;98814.41;;;29.83;30.36
9969;BME280;5025;48.890;9.278;2022-07-04T16:07:57;98810.53;;;29.88;30.67
9969;BME280;5025;48.890;9.278;2022-07-04T16:10:22;98801.75;;;29.86;30.76
9969;BME280;5025;48.890;9.278;2022-07-04T16:12:47;98808.75;;;29.80;30.13
9969;BME280;5025;48.890;9.278;2022-07-04T16:15:13;98794.47;;;29.81;30.15
9969;BME280;5025;48.890;9.278;2022-07-04T16:17:38;98781.72;;;29.80;29.79
9969;BME280;5025;48.890;9.278;2022-07-04T16:20:05;98784.91;;;29.66;29.33
9969;BME280;5025;48.890;9.278;2022-07-04T16:22:31;98781.81;;;29.56;29.56
9969;BME280;5025;48.890;9.278;2022-07-04T16:24:57;98776.97;;;29.53;29.54
9969;BME280;5025;48.890;9.278;2022-07-04T16:27:24;98786.16;;;29.53;29.71
9969;BME280;5025;48.890;9.278;2022-07-04T16:29:49;98783.97;;;29.46;29.80
9969;BME280;5025;48.890;9.278;2022-07-04T16:32:15;98783.06;;;29.42;29.83
9969;BME280;5025;48.890;9.278;2022-07-04T16:34:40;98789.78;;;29.41;29.89
9969;BME280;5025;48.890;9.278;2022-07-04T16:37:05;98783.78;;;29.39;29.96
9969;BME280;5025;48.890;9.278;2022-07-04T16:39:31;98785.38;;;29.40;30.21
9969;BME280;5025;48.890;9.278;2022-07-04T16:41:56;98793.53;;;29.33;29.68
9969;BME280;5025;48.890;9.278;2022-07-04T16:44:21;98797.38;;;29.28;29.75
9969;BME280;5025;48.890;9.278;2022-07-04T16:46:47;98805.25;;;29.14;29.28
9969;BME280;5025;48.890;9.278;2022-07-04T16:49:12;98804.47;;;29.13;29.43
9969;BME280;5025;48.890;9.278;2022-07-04T16:51:37;98796.38;;;29.08;29.37
9969;BME280;5025;48.890;9.278;2022-07-04T16:54:02;98797.44;;;29.04;29.01
9969;BME280;5025;48.890;9.278;2022-07-04T16:56:28;98800.44;;;28.98;29.00
9969;BME280;5025;48.890;9.278;2022-07-04T16:58:53;98809.75;;;28.90;28.67
9969;BME280;5025;48.890;9.278;2022-07-04T17:01:18;98808.16;;;28.77;28.10
9969;BME280;5025;48.890;9.278;2022-07-04T17:03:44;98813.94;;;28.59;28.29
9969;BME280;5025;48.890;9.278;2022-07-04T17:06:09;98808.25;;;28.56;28.58
9969;BME280;5025;48.890;9.278;2022-07-04T17:08:35;98817.19;;;28.49;28.96
9969;BME280;5025;48.890;9.278;2022-07-04T17:11:04;98808.72;;;28.46;29.17
9969;BME280;5025;48.890;9.278;2022-07-04T17:13:29;98810.59;;;28.41;29.09
9969;BME280;5025;48.890;9.278;2022-07-04T17:15:55;98812.66;;;28.32;29.22
9969;BME280;5025;48.890;9.278;2022-07-04T17:18:20;98814.50;;;28.28;29.67
9969;BME280;5025;48.890;9.278;2022-07-04T17:20:45;98806.63;;;28.18;29.94
9969;BME280;5025;48.890;9.278;2022-07-04T17:23:11;98812.16;;;28.05;29.85
9969;BME280;5025;48.890;9.278;2022-07-04T17:25:36;98814.03;;;28.01;30.03
9969;BME280;5025;48.890;9.278;2022-07-04T17:28:02;98817.00;;;27.96;30.47
9969;BME280;5025;48.890;9.278;2022-07-04T17:30:27;98816.41;;;27.90;30.56
9969;BME280;5025;48.890;9.278;2022-07-04T17:32:53;98815.00;;;27.84;30.62
9969;BME280;5025;48.890;9.278;2022-07-04T17:35:19;98814.41;;;27.79;30.80
9969;BME280;5025;48.890;9.278;2022-07-04T17:37:44;98813.81;;;27.73;31.15
9969;BME280;5025;48.890;9.278;2022-07-04T17:40:10;98812.41;;;27.67;31.12
9969;BME280;5025;48.890;9.278;2022-07-04T17:42:35;98819.00;;;27.62;30.88
9969;BME280;5025;48.890;9.278;2022-07-04T17:45:00;98818.28;;;27.53;31.32
9969;BME280;5025;48.890;9.278;2022-07-04T17:47:26;98817.31;;;27.49;31.33
9969;BME280;5025;48.890;9.278;2022-07-04T17:49:52;98813.13;;;27.43;31.42
9969;BME280;5025;48.890;9.278;2022-07-04T17:52:17;98810.59;;;27.38;31.66
9969;BME280;5025;48.890;9.278;2022-07-04T17:54:43;98815.84;;;27.30;31.75
9969;BME280;5025;48.890;9.278;2022-07-04T17:57:13;98815.56;;;27.23;32.03
9969;BME280;5025;48.890;9.278;2022-07-04T17:59:39;98816.56;;;27.18;32.02
9969;BME280;5025;48.890;9.278;2022-07-04T18:02:04;98809.94;;;27.11;32.24
9969;BME280;5025;48.890;9.278;2022-07-04T18:04:30;98821.25;;;27.06;32.08
9969;BME280;5025;48.890;9.278;2022-07-04T18:06:56;98817.06;;;26.99;32.19
9969;BME280;5025;48.890;9.278;2022-07-04T18:09:21;98819.19;;;26.94;32.25
9969;BME280;5025;48.890;9.278;2022-07-04T18:11:46;98823.81;;;26.90;32.56
9969;BME280;5025;48.890;9.278;2022-07-04T18:14:11;98826.44;;;26.86;32.57
9969;BME280;5025;48.890;9.278;2022-07-04T18:16:37;98828.28;;;26.82;32.63
9969;BME280;5025;48.890;9.278;2022-07-04T18:19:03;98834.00;;;26.77;32.84
9969;BME280;5025;48.890;9.278;2022-07-04T18:21:28;98827.50;;;26.73;32.66
9969;BME280;5025;48.890;9.278;2022-07-04T18:23:54;98827.69;;;26.68;32.93
9969;BME280;5025;48.890;9.278;2022-07-04T18:26:19;98835.03;;;26.63;32.90
9969;BME280;5025;48.890;9.278;2022-07-04T18:28:44;98837.97;;;26.58;33.16
9969;BME280;5025;48.890;9.278;2022-07-04T18:31:11;98841.75;;;26.54;33.06
9969;BME280;5025;48.890;9.278;2022-07-04T18:33:37;98840.31;;;26.47;33.33
9969;BME280;5025;48.890;9.278;2022-07-04T18:36:04;98835.44;;;26.44;33.41
9969;BME280;5025;48.890;9.278;2022-07-04T18:38:30;98829.75;;;26.41;33.35
9969;BME280;5025;48.890;9.278;2022-07-04T18:40:56;98843.13;;;26.39;33.10
9969;BME280;5025;48.890;9.278;2022-07-04T18:43:40;98849.34;;;26.36;33.18
9969;BME280;5025;48.890;9.278;2022-07-04T18:46:05;98845.13;;;26.29;33.08
9969;BME280;5025;48.890;9.278;2022-07-04T18:48:32;98851.34;;;26.26;33.28
9969;BME280;5025;48.890;9.278;2022-07-04T18:50:59;98854.28;;;26.21;33.43
9969;BME280;5025;48.890;9.278;2022-07-04T18:53:25;98847.78;;;26.17;33.49
9969;BME280;5025;48.890;9.278;2022-07-04T18:55:50;98851.53;;;26.12;33.93
9969;BME280;5025;48.890;9.278;2022-07-04T18:58:16;98844.72;;;26.10;33.93
9969;BME280;5025;48.890;9.278;2022-07-04T19:00:42;98851.22;;;26.05;34.49
9969;BME280;5025;48.890;9.278;2022-07-04T19:03:09;98855.81;;;26.01;34.21
9969;BME280;5025;48.890;9.278;2022-07-04T19:05:35;98847.66;;;25.96;34.77
9969;BME280;5025;48.890;9.278;2022-07-04T19:08:01;98854.16;;;25.91;34.93
9969;BME280;5025;48.890;9.278;2022-07-04T19:10:27;98849.63;;;25.87;35.20
9969;BME280;5025;48.890;9.278;2022-07-04T19:12:53;98845.41;;;25.81;35.23
9969;BME280;5025;48.890;9.278;2022-07-04T19:15:19;98847.22;;;25.76;35.56
9969;BME280;5025;48.890;9.278;2022-07-04T19:17:44;98844.28;;;25.73;35.59
9969;BME280;5025;48.890;9.278;2022-07-04T19:20:11;98849.66;;;25.69;35.87
9969;BME280;5025;48.890;9.278;2022-07-04T19:22:37;98846.75;;;25.66;35.96
9969;BME280;5025;48.890;9.278;2022-07-04T19:25:04;98856.84;;;25.62;36.24
9969;BME280;5025;48.890;9.278;2022-07-04T19:27:30;98855.84;;;25.57;36.17
9969;BME280;5025;48.890;9.278;2022-07-04T19:29:57;98856.03;;;25.52;36.48
9969;BME280;5025;48.890;9.278;2022-07-04T19:32:22;98858.31;;;25.50;36.23
9969;BME280;5025;48.890;9.278;2022-07-04T19:34:48;98853.44;;;25.47;36.48
9969;BME280;5025;48.890;9.278;2022-07-04T19:37:13;98865.16;;;25.44;36.61
9969;BME280;5025;48.890;9.278;2022-07-04T19:39:39;98872.13;;;25.41;36.36
9969;BME280;5025;48.890;9.278;2022-07-04T19:42:04;98874.75;;;25.38;36.65
9969;BME280;5025;48.890;9.278;2022-07-04T19:44:30;98874.88;;;25.33;36.50
9969;BME280;5025;48.890;9.278;2022-07-04T19:46:56;98875.53;;;25.30;36.59
9969;BME280;5025;48.890;9.278;2022-07-04T19:49:21;98864.28;;;25.26;36.64
9969;BME280;5025;48.890;9.278;2022-07-04T19:51:49;98866.41;;;25.20;36.83
9969;BME280;5025;48.890;9.278;2022-07-04T19:54:33;98882.34;;;25.15;37.47
9969;BME280;5025;48.890;9.278;2022-07-04T19:56:58;98885.56;;;25.08;38.00
9969;BME280;5025;48.890;9.278;2022-07-04T19:59:24;98895.81;;;24.99;38.78
9969;BME280;5025;48.890;9.278;2022-07-04T20:01:49;98896.59;;;24.91;39.47
9969;BME280;5025;48.890;9.278;2022-07-04T20:04:15;98891.88;;;24.82;39.72
9969;BME280;5025;48.890;9.278;2022-07-04T20:06:40;98899.81;;;24.75;40.15
9969;BME280;5025;48.890;9.278;2022-07-04T20:09:06;98903.03;;;24.68;40.77
9969;BME280;5025;48.890;9.278;2022-07-04T20:11:31;98911.78;;;24.62;40.92
9969;BME280;5025;48.890;9.278;2022-07-04T20:13:56;98910.41;;;24.50;41.28
9969;BME280;5025;48.890;9.278;2022-07-04T20:16:21;98914.13;;;24.46;41.02
9969;BME280;5025;48.890;9.278;2022-07-04T20:18:47;98920.91;;;24.40;41.38
9969;BME280;5025;48.890;9.278;2022-07-04T20:21:17;98920.56;;;24.32;41.90
9969;BME280;5025;48.890;9.278;2022-07-04T20:23:42;98917.91;;;24.27;42.08
9969;BME280;5025;48.890;9.278;2022-07-04T20:26:07;98917.25;;;24.22;42.01
9969;BME280;5025;48.890;9.278;2022-07-04T20:28:33;98920.66;;;24.19;41.95
9969;BME280;5025;48.890;9.278;2022-07-04T20:30:58;98917.19;;;24.13;42.20
9969;BME280;5025;48.890;9.278;2022-07-04T20:33:23;98918.63;;;24.10;42.32
9969;BME280;5025;48.890;9.278;2022-07-04T20:35:49;98917.66;;;24.06;42.18
9969;BME280;5025;48.890;9.278;2022-07-04T20:38:14;98922.16;;;24.02;42.12
9969;BME280;5025;48.890;9.278;2022-07-04T20:40:40;98920.97;;;23.94;42.62
9969;BME280;5025;48.890;9.278;2022-07-04T20:43:05;98923.03;;;23.89;42.56